Terminal Aerodrome Forecast
Issued by NWS Quad Cities IA IL

Home | Current Version | Previous Version | Text Only | Print | Product List | Glossary On
Versions: 1 2 3 4 5 6 7 8 9 10 11 12 13 14 15 16 17 18 19 20 21 22 23 24 25 26 27 28 29 30 31 32 33 34 35 36 37 38
845
FTUS43 KDVN 271126
TAFDBQ
TAF
KDBQ 271126Z 2712/2812 04005KT P6SM VCSH SCT040 BKN100
     FM271500 12008KT P6SM VCSH BKN070
     FM271800 17008KT P6SM VCTS SCT040CB BKN070
     FM280000 15007KT 6SM -RA BR VCTS BKN040CB
     FM280300 14008KT 4SM -RA BR VCTS OVC035CB=

USA.gov is the U.S. government's official web portal to all federal, state and local government web resources and services.